Terminal Aerodrome Forecast
Issued by NWS

Home | Current Version | Previous Version | Text Only | Print | Product List | Glossary On
Versions: 1 2 3 4 5 6 7 8 9 10 11 12 13 14 15 16 17 18 19 20 21 22 23 24 25 26 27 28
000
FTUS43 KLMK 161726
TAFHNB
TAF
KHNB 161726Z 1618/1718 VRB04KT P6SM OVC013
      TEMPO 1622/1702 4SM -DZ OVC009
     FM170200 VRB03KT 6SM -DZ BR OVC009
     FM170500 VRB04KT P6SM -DZ OVC012
     FM171100 16006KT 2SM -SHRA OVC009
     FM171400 16007KT 2SM -SHRA OVC007=

USA.gov is the U.S. government's official web portal to all federal, state and local government web resources and services.